x

Portland 12 Nm Southeast Of Portland,me (44007) Wave Buoy

11:50am - Thu 25th Aug 2016 All times are EDT. -4 hours from GMT.

  • Sig Wave height 3.3ft
  • Swell Direction
  • Peak Period 5s
  • Average Period 4s
  • Wind
    18mph, 20mph gusts
  • Sea Temp 64°f
  • Air Temp 67°f
  • Sea Pressure 1015.9mb
  • Portland 12 Nm Southeast Of Portland,me
  • Portland 12 Nm Southeast Of Portland,me

More Historic Weather Station data

Upgrade to MSW Pro to gain access to the past 30 days of data for over 8000 Wavebouys and Weather Stations around the globe.

Join Pro

Comparision Forecast

View Surf forecast
   
Thu 08/25 11:50am 3.5ft 5s 4s 18 20 mph 1015.9mb 64f 67f
10:50am 3ft 5s 4s 18 20 mph 1016.4mb 64f 67f
9:50am 2.5ft 5s 4s 18 22 mph 1016.7mb 64f 66f
8:50am 2.5ft 5s 4s 20 25 mph 1016.6mb 64f 66f
7:50am 2.5ft 5s 4s 20 22 mph 1016.5mb 64f 66f
6:50am 2.5ft 5s 4s 18 20 mph 1017mb 64f 66f
5:50am 2ft 4s 4s 16 18 mph 1017.3mb 64f 66f
4:50am 1.6ft 4s 4s 11 13 mph 1017.3mb 64f 66f
3:50am 2ft 4s 4s 13
mph
1017.5mb 64f 67f
2:50am 1.6ft 4s 4s 13 16 mph 1017.3mb 64f 67f
1:50am 1.6ft 4s 4s 11
mph
1018.1mb 64f 67f
12:50am 1.6ft 4s 4s 9
mph
1019.1mb 64f 66f
Wed 08/24 10:50pm 2ft 4s 4s 9
mph
1019.6mb 65f 67f
9:50pm 1.6ft 4s 4s 11
mph
1019.8mb 65f 67f
8:50pm 2ft 4s 4s 7
mph
1020.2mb 65f 67f
7:50pm 2ft 4s 4s 4 7 mph 1020.2mb 65f 68f
6:50pm 2ft 11s 4s 7 9 mph 1019.9mb 65f 68f
5:50pm 1.6ft 4s 4s 13 16 mph 1019.4mb 65f 69f
4:50pm 1.3ft 12s 4s 13
mph
1019.9mb 66f 70f
3:50pm 1.6ft 7s 4s 11
mph
1020.2mb 66f 69f
2:50pm 1.6ft 8s 4s 11 13 mph 1020.7mb 66f 68f
1:50pm 1.6ft 8s 4s 11 13 mph 1021.3mb 66f 67f
12:50pm 1.3ft 9s 4s 11
mph
1021.6mb 65f 67f
11:50am 1.6ft 4s 4s 9 11 mph 1022.4mb 65f 66f
10:50am 1.3ft 8s 4s 7 9 mph 1022.6mb 65f 66f
9:50am 1.3ft 9s 4s 7 9 mph 1023.1mb 64f 65f
8:50am 1.3ft 11s 4s 7 9 mph 1022.8mb 64f 64f
7:50am 1.3ft 10s 5s 4 7 mph 1023.2mb 64f 64f
5:50am 1.6ft 4s 4s 4 7 mph 1021.9mb 64f 64f
4:50am 1.6ft 4s 5s 4
mph
1021.9mb 64f 64f
3:50am 1.6ft 4s 4s 4
mph
1022mb 64f 65f
2:50am 1.6ft 7s 4s 7 9 mph 1022.2mb 65f 65f
1:50am 2ft 4s 4s 11
mph
1022.2mb 65f 66f
12:50am 2ft 4s 4s 9
mph
1022.6mb 65f 65f
Tue 08/23 11:50pm 2.5ft 4s 4s 9 11 mph 1022.6mb 65f 66f
10:50pm 2.5ft 4s 4s 9 11 mph 1022.4mb 65f 67f
9:50pm 2.5ft 4s 4s 11 13 mph 1022.1mb 65f 67f
8:50pm 2.5ft 4s 4s 16 18 mph 1021.7mb 66f 68f
7:50pm 2.5ft 4s 4s 16 18 mph 1021.4mb 66f 68f
6:50pm 2ft 4s 4s 13 16 mph 1021.5mb 66f 68f
5:50pm 2ft 3s 4s 16 20 mph 1021.1mb 66f 69f
4:50pm 2ft 3s 3s 16 18 mph 1021.4mb 66f 68f
3:50pm 1.6ft 7s 4s 16 18 mph 1021.8mb 66f 68f
2:50pm 1.3ft 11s 4s 13 16 mph 1022.5mb 66f 68f
1:50pm 1.3ft 8s 4s 13
mph
1022.8mb 66f 67f
12:50pm 1.3ft 8s 5s 11 13 mph 1023.1mb 66f 67f
11:50am 1.3ft 11s 5s 9
mph
1023.5mb 65f 66f
10:50am 1.3ft 8s 5s 7
mph
1023.8mb 65f 66f
9:50am 1.3ft 9s 5s 9
mph
1023.8mb 64f 64f
8:50am 1.3ft 10s 4s 11 13 mph 1023.6mb 64f 62f
7:50am 1.3ft 10s 5s 13
mph
1023mb 64f 62f
6:50am 1.3ft 12s 4s 13 16 mph 1022.5mb 64f 61f
4:50am 1.3ft 10s 4s 13 16 mph 1020.9mb 65f 61f
3:50am 1.3ft 12s 4s 16 18 mph 1020.5mb 65f 61f
2:50am 1.3ft 8s 4s 13 16 mph 1020.4mb 65f 62f
1:50am 1.3ft 10s 4s 9 11 mph 1020.2mb 65f 62f
12:50am 1.3ft 8s 5s 13 16 mph 1019.7mb 65f 63f
Mon 08/22 11:50pm 1.3ft 11s 5s 11 13 mph 1019.4mb 65f 64f
10:50pm 1.3ft 11s 5s 11 13 mph 1018.9mb 65f 64f
9:50pm 1.3ft 14s 4s 9 11 mph 1018.4mb 65f 65f
8:50pm 1.3ft 13s 4s 7 11 mph 1017.6mb 66f 65f
7:50pm 2ft 13s 4s 11 13 mph 1016.2mb 66f 66f
6:50pm 2ft 3s 3s 16 18 mph 1014.6mb 66f 67f
5:50pm 2.5ft 3s 3s 22 27 mph 1013.3mb 67f 67f
4:50pm 2.5ft 3s 3s 22 27 mph 1012.1mb 67f 68f
3:50pm 2ft 7s 4s 20 27 mph 1011mb 67f 69f
2:50pm 1.6ft 8s 4s 13 18 mph 1010.3mb 67f 69f
1:50pm 1.6ft 5s 4s 13 18 mph 1009.8mb 67f 70f
12:50pm 2ft 4s 4s 13 18 mph 1009.3mb 67f 70f
11:50am 2ft 5s 5s 11 18 mph 1009.1mb 66f 69f
10:50am 2ft 4s 5s 9
mph
1008.9mb 66f 69f
9:50am 2ft 5s 4s 4
mph
1008.5mb 66f 66f
8:50am 2ft 5s 4s 11 13 mph 1007.7mb 66f 66f
7:50am 2ft 5s 4s 13 16 mph 1006.6mb 66f 65f
6:50am 2.5ft 5s 4s 13 16 mph 1005.5mb 66f 67f
5:50am 2.5ft 5s 4s 2 4 mph 1005.9mb 66f 68f
4:50am 2.5ft 5s 4s 16 18 mph 1006.3mb 66f 68f
3:50am 2.5ft 5s 4s 11 13 mph 1006.9mb 67f 68f
2:50am 2.5ft 4s 4s 9
mph
1007.4mb 67f 68f
1:50am 2.5ft 5s 4s 9
mph
1008mb 66f 68f
12:50am 2.5ft 5s 4s 9 11 mph 1008.9mb 65f 68f
Sun 08/21 10:50pm 2.5ft 5s 4s 13 16 mph 1010.1mb 65f 69f
9:50pm 2.5ft 4s 4s 7 9 mph 1011.1mb 66f 69f
8:50pm 2.5ft 5s 4s 9
mph
1011.6mb 66f 68f
7:50pm 2.5ft 5s 4s 7 9 mph 1011.9mb 67f 68f
6:50pm 2.5ft 14s 4s 7 9 mph 1012.2mb 67f 68f
5:50pm 2.5ft 5s 4s 9
mph
1012.4mb 67f 68f
4:50pm 2.5ft 4s 4s 9
mph
1012.6mb 68f 68f